WAT2918 TNCC-SKCG
Flight info
| Callsign | WAT2918 |
|---|---|
| Flight time | 1h 12m |
| Altitude | 38000 |
| Route | DATOR1K DATOR UL220 BAQ BAQ4B |
| Aircraft | A320/M-SDE3FGHIRWY/LB1 |
Departure
| Time | 2026-04-21 20:58 |
|---|---|
| Airport | Hato International Airport (TNCC) |
Arrival
| Time | 2026-04-21 22:11 |
|---|---|
| Airport | Rafael Nuñez International Airport (SKCG) |
| Time | Latitude | Longitude | Altitude | Speed | Heading |
|---|---|---|---|---|---|
| 2026-04-21 20:53 | 12.18796 | -68.96719 | 55 ft | 0 kts | 11° |
| 2026-04-21 20:55 | 12.18820 | -68.96716 | 53 ft | 6 kts | 5° |
| 2026-04-21 20:56 | 12.18871 | -68.96749 | 50 ft | 11 kts | 302° |
| 2026-04-21 20:56 | 12.18905 | -68.96835 | 49 ft | 14 kts | 274° |
| 2026-04-21 20:56 | 12.18916 | -68.96937 | 50 ft | 14 kts | 281° |
| 2026-04-21 20:56 | 12.18938 | -68.97047 | 49 ft | 16 kts | 282° |
| 2026-04-21 20:57 | 12.18964 | -68.97168 | 48 ft | 17 kts | 282° |
| 2026-04-21 20:57 | 12.19023 | -68.97221 | 47 ft | 14 kts | 49° |
| 2026-04-21 20:57 | 12.19089 | -68.97135 | 43 ft | 14 kts | 57° |
| 2026-04-21 20:57 | 12.19115 | -68.97040 | 42 ft | 14 kts | 96° |
| 2026-04-21 20:58 | 12.19070 | -68.96819 | 42 ft | 69 kts | 102° |
| 2026-04-21 20:58 | 12.18907 | -68.96060 | 46 ft | 144 kts | 102° |
| 2026-04-21 20:58 | 12.18682 | -68.94949 | 510 ft | 166 kts | 101° |
| 2026-04-21 20:58 | 12.18447 | -68.93857 | 1448 ft | 157 kts | 99° |
| 2026-04-21 20:59 | 12.18211 | -68.92760 | 2088 ft | 165 kts | 98° |
| 2026-04-21 20:59 | 12.17963 | -68.91547 | 2602 ft | 184 kts | 99° |
| 2026-04-21 20:59 | 12.17689 | -68.90216 | 3167 ft | 202 kts | 99° |
| 2026-04-21 20:59 | 12.17174 | -68.88800 | 3737 ft | 224 kts | 124° |
| 2026-04-21 21:00 | 12.15919 | -68.87769 | 4346 ft | 246 kts | 155° |
| 2026-04-21 21:00 | 12.14147 | -68.87552 | 4949 ft | 268 kts | 190° |
| 2026-04-21 21:00 | 12.12456 | -68.88438 | 5599 ft | 283 kts | 226° |
| 2026-04-21 21:00 | 12.11362 | -68.90113 | 6486 ft | 286 kts | 243° |
| 2026-04-21 21:01 | 12.10457 | -68.91946 | 7388 ft | 289 kts | 244° |
| 2026-04-21 21:01 | 12.09555 | -68.93774 | 8266 ft | 291 kts | 243° |
| 2026-04-21 21:01 | 12.08607 | -68.95623 | 9104 ft | 295 kts | 243° |
| 2026-04-21 21:01 | 12.07628 | -68.97482 | 9901 ft | 299 kts | 242° |
| 2026-04-21 21:02 | 12.06682 | -68.99373 | 10546 ft | 307 kts | 250° |
| 2026-04-21 21:02 | 12.06308 | -69.01566 | 10927 ft | 322 kts | 273° |
| 2026-04-21 21:02 | 12.06754 | -69.03759 | 11443 ft | 330 kts | 289° |
| 2026-04-21 21:02 | 12.07495 | -69.06010 | 12157 ft | 335 kts | 289° |
| 2026-04-21 21:03 | 12.08241 | -69.08297 | 12867 ft | 339 kts | 288° |
| 2026-04-21 21:03 | 12.08980 | -69.10599 | 13551 ft | 343 kts | 288° |
| 2026-04-21 21:03 | 12.09720 | -69.12929 | 14261 ft | 345 kts | 288° |
| 2026-04-21 21:03 | 12.10459 | -69.15275 | 15003 ft | 345 kts | 288° |
| 2026-04-21 21:04 | 12.11194 | -69.17615 | 15633 ft | 349 kts | 288° |
| 2026-04-21 21:04 | 12.11935 | -69.19979 | 16228 ft | 352 kts | 288° |
| 2026-04-21 21:04 | 12.12689 | -69.22388 | 16819 ft | 356 kts | 288° |
| 2026-04-21 21:04 | 12.13446 | -69.24811 | 17385 ft | 360 kts | 288° |
| 2026-04-21 21:05 | 12.14212 | -69.27258 | 17959 ft | 363 kts | 288° |
| 2026-04-21 21:05 | 12.14992 | -69.29760 | 18538 ft | 366 kts | 288° |
| 2026-04-21 21:05 | 12.15768 | -69.32246 | 19101 ft | 368 kts | 288° |
| 2026-04-21 21:05 | 12.16546 | -69.34738 | 19652 ft | 371 kts | 288° |
| 2026-04-21 21:06 | 12.17331 | -69.37258 | 20193 ft | 374 kts | 288° |
| 2026-04-21 21:06 | 12.18126 | -69.39809 | 20725 ft | 376 kts | 288° |
| 2026-04-21 21:06 | 12.18934 | -69.42406 | 21246 ft | 379 kts | 289° |
| 2026-04-21 21:06 | 12.19735 | -69.44977 | 21751 ft | 382 kts | 289° |
| 2026-04-21 21:07 | 12.20552 | -69.47603 | 22247 ft | 385 kts | 289° |
| 2026-04-21 21:07 | 12.21375 | -69.50246 | 22755 ft | 387 kts | 289° |
| 2026-04-21 21:07 | 12.22195 | -69.52876 | 23257 ft | 390 kts | 288° |
| 2026-04-21 21:07 | 12.23029 | -69.55561 | 23768 ft | 393 kts | 288° |
| 2026-04-21 21:08 | 12.23867 | -69.58260 | 24278 ft | 395 kts | 288° |
| 2026-04-21 21:08 | 12.24699 | -69.60940 | 24770 ft | 397 kts | 288° |
| 2026-04-21 21:08 | 12.25550 | -69.63677 | 25266 ft | 399 kts | 288° |
| 2026-04-21 21:08 | 12.26382 | -69.66431 | 25737 ft | 402 kts | 285° |
| 2026-04-21 21:09 | 12.27097 | -69.69238 | 26222 ft | 404 kts | 283° |
| 2026-04-21 21:09 | 12.27776 | -69.72045 | 26692 ft | 406 kts | 283° |
| 2026-04-21 21:09 | 12.28458 | -69.74878 | 27137 ft | 408 kts | 283° |
| 2026-04-21 21:09 | 12.29141 | -69.77720 | 27568 ft | 410 kts | 283° |
| 2026-04-21 21:10 | 12.29835 | -69.80605 | 27870 ft | 416 kts | 283° |
| 2026-04-21 21:10 | 12.30537 | -69.83518 | 28217 ft | 420 kts | 283° |
| 2026-04-21 21:10 | 12.31231 | -69.86402 | 28624 ft | 422 kts | 282° |
| 2026-04-21 21:10 | 12.31942 | -69.89353 | 29040 ft | 424 kts | 283° |
| 2026-04-21 21:11 | 12.32650 | -69.92297 | 29446 ft | 426 kts | 283° |
| 2026-04-21 21:11 | 12.33354 | -69.95222 | 29866 ft | 427 kts | 283° |
| 2026-04-21 21:11 | 12.34065 | -69.98174 | 30261 ft | 428 kts | 283° |
| 2026-04-21 21:11 | 12.34781 | -70.01150 | 30690 ft | 428 kts | 282° |
| 2026-04-21 21:12 | 12.35491 | -70.04104 | 31233 ft | 426 kts | 282° |
| 2026-04-21 21:12 | 12.36196 | -70.07037 | 31792 ft | 422 kts | 282° |
| 2026-04-21 21:12 | 12.36896 | -70.09950 | 32348 ft | 419 kts | 282° |
| 2026-04-21 21:12 | 12.37587 | -70.12832 | 32877 ft | 416 kts | 282° |
| 2026-04-21 21:13 | 12.38281 | -70.15721 | 33422 ft | 413 kts | 282° |
| 2026-04-21 21:13 | 12.38964 | -70.18591 | 33916 ft | 411 kts | 281° |
| 2026-04-21 21:13 | 12.39464 | -70.21461 | 34374 ft | 409 kts | 276° |
| 2026-04-21 21:13 | 12.39706 | -70.24371 | 34809 ft | 407 kts | 271° |
| 2026-04-21 21:14 | 12.39686 | -70.27285 | 35215 ft | 405 kts | 266° |
| 2026-04-21 21:14 | 12.39411 | -70.30157 | 35596 ft | 404 kts | 261° |
| 2026-04-21 21:14 | 12.38889 | -70.32960 | 35962 ft | 402 kts | 256° |
| 2026-04-21 21:14 | 12.38116 | -70.35743 | 36288 ft | 402 kts | 252° |
| 2026-04-21 21:15 | 12.37228 | -70.38474 | 36546 ft | 403 kts | 251° |
| 2026-04-21 21:15 | 12.36332 | -70.41182 | 36777 ft | 404 kts | 251° |
| 2026-04-21 21:15 | 12.35423 | -70.43926 | 37002 ft | 405 kts | 251° |
| 2026-04-21 21:15 | 12.34511 | -70.46686 | 37227 ft | 406 kts | 251° |
| 2026-04-21 21:16 | 12.33603 | -70.49432 | 37435 ft | 407 kts | 251° |
| 2026-04-21 21:16 | 12.32696 | -70.52180 | 37642 ft | 407 kts | 251° |
| 2026-04-21 21:16 | 12.31785 | -70.54941 | 37844 ft | 408 kts | 251° |
| 2026-04-21 21:16 | 12.30882 | -70.57676 | 37888 ft | 410 kts | 251° |
| 2026-04-21 21:17 | 12.29042 | -70.63250 | 37905 ft | 411 kts | 251° |
| 2026-04-21 21:17 | 12.27203 | -70.68833 | 37912 ft | 411 kts | 251° |
| 2026-04-21 21:18 | 12.25362 | -70.74423 | 37909 ft | 411 kts | 251° |
| 2026-04-21 21:18 | 12.23525 | -70.79977 | 37910 ft | 411 kts | 251° |
| 2026-04-21 21:19 | 12.21639 | -70.85580 | 37908 ft | 411 kts | 250° |
| 2026-04-21 21:19 | 12.19715 | -70.91098 | 37909 ft | 411 kts | 250° |
| 2026-04-21 21:20 | 12.17798 | -70.96591 | 37908 ft | 410 kts | 250° |
| 2026-04-21 21:20 | 12.15878 | -71.02100 | 37902 ft | 411 kts | 250° |
| 2026-04-21 21:21 | 12.13944 | -71.07655 | 37903 ft | 411 kts | 250° |
| 2026-04-21 21:21 | 12.12051 | -71.13176 | 37901 ft | 412 kts | 251° |
| 2026-04-21 21:22 | 12.10224 | -71.18776 | 37899 ft | 412 kts | 251° |
| 2026-04-21 21:22 | 12.08406 | -71.24341 | 37901 ft | 413 kts | 251° |
| 2026-04-21 21:23 | 12.06577 | -71.29919 | 37903 ft | 413 kts | 251° |
| 2026-04-21 21:23 | 12.04739 | -71.35513 | 37902 ft | 413 kts | 251° |
| 2026-04-21 21:24 | 12.02900 | -71.41099 | 37900 ft | 413 kts | 251° |
| 2026-04-21 21:24 | 12.01056 | -71.46696 | 37904 ft | 413 kts | 251° |
| 2026-04-21 21:25 | 11.99223 | -71.52255 | 37906 ft | 413 kts | 251° |
| 2026-04-21 21:25 | 11.97379 | -71.57848 | 37905 ft | 413 kts | 251° |
| 2026-04-21 21:26 | 11.95545 | -71.63405 | 37902 ft | 414 kts | 251° |
| 2026-04-21 21:26 | 11.93709 | -71.68980 | 37897 ft | 415 kts | 250° |
| 2026-04-21 21:27 | 11.91872 | -71.74562 | 37894 ft | 415 kts | 250° |
| 2026-04-21 21:27 | 11.90030 | -71.80137 | 37888 ft | 415 kts | 250° |
| 2026-04-21 21:28 | 11.88160 | -71.85716 | 37882 ft | 416 kts | 250° |
| 2026-04-21 21:29 | 11.85362 | -71.94089 | 37880 ft | 416 kts | 250° |
| 2026-04-21 21:29 | 11.83505 | -71.99677 | 37877 ft | 416 kts | 250° |
| 2026-04-21 21:30 | 11.81653 | -72.05257 | 37877 ft | 416 kts | 250° |
| 2026-04-21 21:30 | 11.79786 | -72.10879 | 37878 ft | 417 kts | 250° |
| 2026-04-21 21:31 | 11.77925 | -72.16482 | 37877 ft | 417 kts | 250° |
| 2026-04-21 21:31 | 11.76064 | -72.22077 | 37885 ft | 418 kts | 250° |
| 2026-04-21 21:32 | 11.74195 | -72.27695 | 37891 ft | 419 kts | 250° |
| 2026-04-21 21:32 | 11.72325 | -72.33314 | 37895 ft | 419 kts | 250° |
| 2026-04-21 21:33 | 11.70459 | -72.38915 | 37895 ft | 418 kts | 250° |
| 2026-04-21 21:33 | 11.68584 | -72.44538 | 37898 ft | 418 kts | 250° |
| 2026-04-21 21:34 | 11.66700 | -72.50163 | 37901 ft | 418 kts | 250° |
| 2026-04-21 21:34 | 11.64815 | -72.55785 | 37902 ft | 419 kts | 250° |
| 2026-04-21 21:35 | 11.62920 | -72.61434 | 37904 ft | 419 kts | 250° |
| 2026-04-21 21:35 | 11.61036 | -72.67060 | 37907 ft | 420 kts | 250° |
| 2026-04-21 21:36 | 11.59141 | -72.72739 | 37908 ft | 421 kts | 250° |
| 2026-04-21 21:36 | 11.57259 | -72.78355 | 37907 ft | 421 kts | 250° |
| 2026-04-21 21:37 | 11.55359 | -72.84015 | 37910 ft | 421 kts | 250° |
| 2026-04-21 21:37 | 11.53465 | -72.89642 | 37912 ft | 421 kts | 250° |
| 2026-04-21 21:38 | 11.51295 | -72.95186 | 37916 ft | 421 kts | 245° |
| 2026-04-21 21:38 | 11.48976 | -73.00621 | 37917 ft | 421 kts | 245° |
| 2026-04-21 21:39 | 11.46630 | -73.06117 | 37917 ft | 421 kts | 245° |
| 2026-04-21 21:39 | 11.44300 | -73.11575 | 37919 ft | 422 kts | 245° |
| 2026-04-21 21:40 | 11.41954 | -73.17071 | 37924 ft | 422 kts | 245° |
| 2026-04-21 21:40 | 11.39624 | -73.22527 | 37924 ft | 422 kts | 245° |
| 2026-04-21 21:41 | 11.37281 | -73.28007 | 37928 ft | 422 kts | 245° |
| 2026-04-21 21:41 | 11.34931 | -73.33499 | 37932 ft | 422 kts | 245° |
| 2026-04-21 21:42 | 11.32582 | -73.38989 | 37938 ft | 423 kts | 245° |
| 2026-04-21 21:42 | 11.30237 | -73.44465 | 37947 ft | 423 kts | 245° |
| 2026-04-21 21:43 | 11.27882 | -73.49962 | 37952 ft | 423 kts | 245° |
| 2026-04-21 21:43 | 11.25525 | -73.55461 | 37950 ft | 423 kts | 245° |
| 2026-04-21 21:44 | 11.23175 | -73.60941 | 37963 ft | 423 kts | 245° |
| 2026-04-21 21:44 | 11.20829 | -73.66408 | 38010 ft | 424 kts | 245° |
| 2026-04-21 21:45 | 11.18475 | -73.71940 | 37963 ft | 425 kts | 245° |
| 2026-04-21 21:45 | 11.17316 | -73.74674 | 37525 ft | 422 kts | 245° |
| 2026-04-21 21:45 | 11.16154 | -73.77416 | 37036 ft | 417 kts | 245° |
| 2026-04-21 21:45 | 11.15020 | -73.80085 | 36490 ft | 415 kts | 245° |
| 2026-04-21 21:46 | 11.13865 | -73.82801 | 35888 ft | 414 kts | 245° |
| 2026-04-21 21:46 | 11.12729 | -73.85471 | 35301 ft | 415 kts | 245° |
| 2026-04-21 21:46 | 11.11572 | -73.88187 | 34713 ft | 416 kts | 245° |
| 2026-04-21 21:46 | 11.10429 | -73.90870 | 34132 ft | 418 kts | 245° |
| 2026-04-21 21:47 | 11.09259 | -73.93614 | 33514 ft | 419 kts | 246° |
| 2026-04-21 21:47 | 11.08103 | -73.96327 | 32889 ft | 420 kts | 246° |
| 2026-04-21 21:47 | 11.06942 | -73.99050 | 32292 ft | 422 kts | 246° |
| 2026-04-21 21:47 | 11.05779 | -74.01778 | 31607 ft | 424 kts | 246° |
| 2026-04-21 21:48 | 11.04592 | -74.04562 | 30821 ft | 427 kts | 246° |
| 2026-04-21 21:48 | 11.03403 | -74.07346 | 30117 ft | 428 kts | 246° |
| 2026-04-21 21:48 | 11.02229 | -74.10097 | 29599 ft | 425 kts | 246° |
| 2026-04-21 21:48 | 11.01059 | -74.12837 | 29064 ft | 422 kts | 246° |
| 2026-04-21 21:49 | 10.99884 | -74.15587 | 28537 ft | 419 kts | 246° |
| 2026-04-21 21:49 | 10.98730 | -74.18288 | 28019 ft | 417 kts | 246° |
| 2026-04-21 21:49 | 10.97580 | -74.20985 | 27450 ft | 415 kts | 247° |
| 2026-04-21 21:49 | 10.96515 | -74.23717 | 26878 ft | 414 kts | 250° |
| 2026-04-21 21:50 | 10.95622 | -74.26485 | 26297 ft | 414 kts | 254° |
| 2026-04-21 21:50 | 10.94843 | -74.29328 | 25694 ft | 414 kts | 255° |
| 2026-04-21 21:50 | 10.94088 | -74.32151 | 25088 ft | 414 kts | 255° |
| 2026-04-21 21:50 | 10.93334 | -74.34969 | 24514 ft | 414 kts | 255° |
| 2026-04-21 21:51 | 10.92584 | -74.37769 | 23985 ft | 412 kts | 255° |
| 2026-04-21 21:51 | 10.91828 | -74.40586 | 23443 ft | 411 kts | 255° |
| 2026-04-21 21:51 | 10.91073 | -74.43390 | 22883 ft | 411 kts | 255° |
| 2026-04-21 21:51 | 10.90318 | -74.46194 | 22348 ft | 409 kts | 255° |
| 2026-04-21 21:52 | 10.89572 | -74.48949 | 21832 ft | 408 kts | 254° |
| 2026-04-21 21:52 | 10.88809 | -74.51727 | 21352 ft | 406 kts | 254° |
| 2026-04-21 21:52 | 10.88051 | -74.54494 | 20895 ft | 403 kts | 255° |
| 2026-04-21 21:52 | 10.87308 | -74.57220 | 20468 ft | 399 kts | 255° |
| 2026-04-21 21:53 | 10.86576 | -74.59920 | 20036 ft | 396 kts | 255° |
| 2026-04-21 21:53 | 10.85846 | -74.62616 | 19592 ft | 392 kts | 255° |
| 2026-04-21 21:53 | 10.85126 | -74.65280 | 19152 ft | 389 kts | 254° |
| 2026-04-21 21:53 | 10.84423 | -74.67893 | 18716 ft | 386 kts | 254° |
| 2026-04-21 21:54 | 10.83713 | -74.70539 | 18284 ft | 382 kts | 254° |
| 2026-04-21 21:54 | 10.83012 | -74.73140 | 17863 ft | 379 kts | 254° |
| 2026-04-21 21:54 | 10.82326 | -74.75683 | 17453 ft | 375 kts | 254° |
| 2026-04-21 21:54 | 10.81634 | -74.78245 | 17041 ft | 371 kts | 254° |
| 2026-04-21 21:55 | 10.80949 | -74.80772 | 16619 ft | 368 kts | 254° |
| 2026-04-21 21:55 | 10.80278 | -74.83242 | 16201 ft | 366 kts | 253° |
| 2026-04-21 21:55 | 10.79348 | -74.85640 | 15759 ft | 363 kts | 241° |
| 2026-04-21 21:55 | 10.77927 | -74.87734 | 15332 ft | 359 kts | 229° |
| 2026-04-21 21:56 | 10.76210 | -74.89587 | 14927 ft | 357 kts | 225° |
| 2026-04-21 21:56 | 10.74473 | -74.91377 | 14497 ft | 355 kts | 225° |
| 2026-04-21 21:56 | 10.72729 | -74.93166 | 14071 ft | 352 kts | 225° |
| 2026-04-21 21:56 | 10.71015 | -74.94933 | 13654 ft | 350 kts | 225° |
| 2026-04-21 21:57 | 10.69313 | -74.96696 | 13246 ft | 347 kts | 226° |
| 2026-04-21 21:57 | 10.67637 | -74.98437 | 12826 ft | 344 kts | 226° |
| 2026-04-21 21:57 | 10.65962 | -75.00181 | 12404 ft | 342 kts | 226° |
| 2026-04-21 21:57 | 10.64320 | -75.01893 | 12010 ft | 339 kts | 226° |
| 2026-04-21 21:58 | 10.62675 | -75.03609 | 11581 ft | 338 kts | 226° |
| 2026-04-21 21:58 | 10.61035 | -75.05320 | 11157 ft | 337 kts | 226° |
| 2026-04-21 21:58 | 10.59397 | -75.07028 | 10735 ft | 335 kts | 226° |
| 2026-04-21 21:58 | 10.57783 | -75.08711 | 10319 ft | 333 kts | 225° |
| 2026-04-21 21:59 | 10.56175 | -75.10388 | 10129 ft | 321 kts | 225° |
| 2026-04-21 21:59 | 10.54656 | -75.11971 | 10056 ft | 300 kts | 225° |
| 2026-04-21 21:59 | 10.53219 | -75.13470 | 9845 ft | 295 kts | 225° |
| 2026-04-21 21:59 | 10.51804 | -75.14944 | 9505 ft | 294 kts | 225° |
| 2026-04-21 22:00 | 10.50375 | -75.16433 | 9181 ft | 292 kts | 225° |
| 2026-04-21 22:00 | 10.48964 | -75.17902 | 8862 ft | 290 kts | 225° |
| 2026-04-21 22:00 | 10.47558 | -75.19366 | 8541 ft | 288 kts | 226° |
| 2026-04-21 22:00 | 10.46161 | -75.20821 | 8208 ft | 286 kts | 226° |
| 2026-04-21 22:01 | 10.44779 | -75.22259 | 7905 ft | 284 kts | 226° |
| 2026-04-21 22:01 | 10.43397 | -75.23698 | 7588 ft | 282 kts | 226° |
| 2026-04-21 22:01 | 10.42033 | -75.25119 | 7264 ft | 280 kts | 226° |
| 2026-04-21 22:01 | 10.40664 | -75.26544 | 6946 ft | 278 kts | 226° |
| 2026-04-21 22:02 | 10.39315 | -75.27949 | 6642 ft | 276 kts | 226° |
| 2026-04-21 22:02 | 10.37975 | -75.29341 | 6334 ft | 274 kts | 226° |
| 2026-04-21 22:02 | 10.36658 | -75.30712 | 6020 ft | 272 kts | 226° |
| 2026-04-21 22:02 | 10.35326 | -75.32099 | 5711 ft | 270 kts | 226° |
| 2026-04-21 22:03 | 10.34030 | -75.33449 | 5422 ft | 268 kts | 227° |
| 2026-04-21 22:03 | 10.32713 | -75.34818 | 5129 ft | 267 kts | 227° |
| 2026-04-21 22:03 | 10.31418 | -75.36166 | 4822 ft | 266 kts | 227° |
| 2026-04-21 22:03 | 10.30133 | -75.37502 | 4535 ft | 264 kts | 227° |
| 2026-04-21 22:04 | 10.28859 | -75.38827 | 4240 ft | 263 kts | 227° |
| 2026-04-21 22:04 | 10.27582 | -75.40155 | 4044 ft | 257 kts | 227° |
| 2026-04-21 22:04 | 10.26413 | -75.41450 | 4011 ft | 241 kts | 238° |
| 2026-04-21 22:04 | 10.25886 | -75.43002 | 3915 ft | 225 kts | 271° |
| 2026-04-21 22:05 | 10.25955 | -75.44514 | 3824 ft | 210 kts | 277° |
| 2026-04-21 22:05 | 10.26054 | -75.45959 | 3584 ft | 203 kts | 277° |
| 2026-04-21 22:05 | 10.26137 | -75.47357 | 3425 ft | 189 kts | 276° |
| 2026-04-21 22:05 | 10.26201 | -75.48634 | 3238 ft | 174 kts | 276° |
| 2026-04-21 22:06 | 10.26251 | -75.49805 | 3073 ft | 159 kts | 277° |
| 2026-04-21 22:06 | 10.26449 | -75.50857 | 2914 ft | 140 kts | 301° |
| 2026-04-21 22:06 | 10.27047 | -75.51566 | 2830 ft | 130 kts | 328° |
| 2026-04-21 22:06 | 10.27881 | -75.51846 | 2757 ft | 128 kts | 355° |
| 2026-04-21 22:07 | 10.28782 | -75.51878 | 2653 ft | 128 kts | 0° |
| 2026-04-21 22:07 | 10.29673 | -75.51862 | 2479 ft | 126 kts | 2° |
| 2026-04-21 22:07 | 10.30517 | -75.51838 | 2324 ft | 126 kts | 2° |
| 2026-04-21 22:07 | 10.31391 | -75.51807 | 2164 ft | 125 kts | 3° |
| 2026-04-21 22:08 | 10.32271 | -75.51775 | 2000 ft | 124 kts | 3° |
| 2026-04-21 22:08 | 10.33138 | -75.51742 | 1843 ft | 123 kts | 3° |
| 2026-04-21 22:08 | 10.33988 | -75.51708 | 1685 ft | 122 kts | 3° |
| 2026-04-21 22:08 | 10.34834 | -75.51674 | 1531 ft | 121 kts | 3° |
| 2026-04-21 22:09 | 10.35689 | -75.51640 | 1376 ft | 122 kts | 3° |
| 2026-04-21 22:09 | 10.36542 | -75.51606 | 1227 ft | 123 kts | 3° |
| 2026-04-21 22:09 | 10.37408 | -75.51569 | 1078 ft | 123 kts | 2° |
| 2026-04-21 22:09 | 10.38277 | -75.51534 | 915 ft | 124 kts | 3° |
| 2026-04-21 22:10 | 10.39151 | -75.51498 | 762 ft | 126 kts | 2° |
| 2026-04-21 22:10 | 10.40027 | -75.51463 | 605 ft | 126 kts | 4° |
| 2026-04-21 22:10 | 10.40904 | -75.51424 | 449 ft | 127 kts | 360° |
| 2026-04-21 22:10 | 10.41800 | -75.51389 | 285 ft | 127 kts | 2° |
| 2026-04-21 22:11 | 10.42687 | -75.51353 | 125 ft | 128 kts | 1° |
| 2026-04-21 22:11 | 10.43584 | -75.51307 | 20 ft | 127 kts | 1° |
| 2026-04-21 22:11 | 10.44178 | -75.51289 | 22 ft | 42 kts | 0° |
| 2026-04-21 22:11 | 10.44427 | -75.51280 | 22 ft | 33 kts | 2° |
| 2026-04-21 22:12 | 10.44544 | -75.51344 | 22 ft | 13 kts | 287° |
| 2026-04-21 22:12 | 10.44547 | -75.51397 | 23 ft | 5 kts | 213° |
| 2026-04-21 22:12 | 10.44505 | -75.51403 | 23 ft | 4 kts | 181° |
| 2026-04-21 22:12 | 10.44485 | -75.51404 | 23 ft | 0 kts | 182° |